Terminal Aerodrome Forecast
Issued by NWS

Home | Current Version | Previous Version | Graphics & Text | Print | Product List | Glossary On
Versions: 1 2 3 4 5 6 7 8 9 10 11 12 13 14 15 16 17 18 19
000
FTUS43 KGRB 291200 AAA
TAFCWA
TAF AMD
KCWA 291250Z 2913/3012 35006KT 4SM BR OVC006
      TEMPO 2913/2915 2SM BR OVC003
     FM291500 01009G15KT P6SM BKN012 OVC020
      TEMPO 2915/2918 5SM -SHRA BR
     FM291800 35009G15KT P6SM OVC014
     FM300300 03007KT P6SM BKN018
     FM300800 05005KT P6SM SCT016=

USA.gov is the U.S. government's official web portal to all federal, state and local government web resources and services.